MST,Max TemperatureF,Mean TemperatureF,Min TemperatureF,Max Dew PointF,MeanDew PointF,Min DewpointF,Max Humidity, Mean Humidity, Min Humidity, Max Sea Level PressureIn, Mean Sea Level PressureIn, Min Sea Level PressureIn, Max VisibilityMiles, Mean VisibilityMiles, Min VisibilityMiles, Max Wind SpeedMPH, Mean Wind SpeedMPH, Max Gust SpeedMPH,PrecipitationIn, CloudCover, Events, WindDirDegrees
2012-2-1,42,29,15,19,16,10,84,59,34,30.25,30.14,29.98,10,10,10,13,5,20,0.00,1,,163
2012-2-2,40,29,17,24,18,14,84,66,47,30.41,30.26,30.11,10,10,8,16,6,17,T,8,,306
2012-2-3,38,27,15,20,18,13,84,64,44,30.57,30.48,30.34,10,10,10,6,2,,0.00,4,,209
2012-2-4,41,25,8,20,15,7,92,66,40,30.62,30.52,30.40,10,10,10,10,4,,0.00,0,,173
2012-2-5,44,26,8,18,14,6,92,63,33,30.49,30.37,30.28,10,10,10,13,4,,0.00,0,,178
2012-2-6,34,22,9,22,16,9,88,68,47,30.50,30.38,30.18,10,10,10,14,6,17,0.00,4,,315
2012-2-7,36,25,13,20,16,11,88,64,40,30.49,30.38,30.29,10,10,10,13,5,,0.00,4,,84
2012-2-8,35,22,9,19,15,8,100,74,47,30.40,30.27,30.17,10,5,0,9,2,,0.00,2,Fog,80
2012-2-9,45,29,13,21,17,13,92,65,37,30.37,30.30,30.15,10,10,10,6,3,,0.00,5,,227
2012-2-10,31,22,13,23,18,11,96,80,63,30.44,30.28,30.17,10,4,0,10,5,,T,6,Fog-Snow,355
2012-2-11,24,15,5,17,10,3,96,84,71,30.46,30.27,30.02,10,5,0,6,2,,T,5,Fog-Snow,36
2012-2-12,30,19,8,23,12,5,100,84,68,30.16,29.97,29.74,10,5,0,6,0,,0.00,5,Fog,78
2012-2-13,42,28,13,30,23,12,100,80,60,29.90,29.84,29.74,10,8,3,10,3,,0.00,7,,30
2012-2-14,39,28,16,28,23,14,100,82,64,29.96,29.80,29.67,10,10,10,14,5,21,0.00,5,,318
2012-2-15,38,27,15,21,16,12,92,64,35,30.27,30.12,29.95,10,10,10,10,2,,0.00,2,,6
2012-2-16,43,26,9,18,14,7,92,61,30,30.32,30.22,30.13,10,10,10,8,3,,0.00,0,,176
2012-2-17,40,28,16,22,18,14,84,62,40,30.25,30.19,30.09,10,10,10,10,3,,0.00,4,,162
2012-2-18,44,29,13,21,17,11,92,60,28,30.14,30.00,29.84,10,10,10,8,4,,0.00,0,,180
2012-2-19,33,25,16,27,23,16,92,77,61,29.94,29.84,29.74,10,6,0,7,4,,T,5,Fog-Snow,224
2012-2-20,37,22,7,19,14,4,92,65,38,30.05,29.98,29.91,10,10,10,8,5,,0.00,1,,160
2012-2-21,46,31,15,31,19,12,88,61,33,29.94,29.82,29.69,10,10,10,14,6,23,0.00,4,,136
2012-2-22,55,42,29,36,30,23,100,69,38,29.71,29.54,29.31,10,9,2,18,6,31,T,5,Rain-Snow,336
2012-2-23,36,30,23,27,21,16,88,66,44,30.16,29.99,29.72,10,9,1,23,11,32,T,5,Snow,307
2012-2-24,40,28,15,25,16,9,92,61,29,30.30,30.18,30.02,10,9,2,14,8,,T,2,Snow,147
2012-2-25,50,34,17,27,16,1,85,51,17,29.97,29.64,29.39,10,10,3,35,12,51,0.00,4,,219
2012-2-26,40,32,23,26,11,-2,92,55,17,30.14,30.00,29.76,10,10,10,20,10,30,0.00,2,,51
2012-2-27,38,26,14,14,11,7,88,59,29,30.12,30.03,29.92,10,10,10,13,3,,0.00,0,,204
2012-2-28,27,16,4,23,20,3,100,80,60,30.06,29.81,29.70,10,4,0,9,3,,0.02,7,Fog-Snow,277
2012-2-29,38,18,-2,27,7,-6,96,79,62,30.06,29.89,29.72,10,6,0,10,5,,T,4,Fog-Snow,215